sensor_id;sensor_type;location;lat;lon;timestamp;P1;durP1;ratioP1;P2;durP2;ratioP2
71572;SDS011;59408;51.032;9.410;2023-11-21T00:00:22;9.15;;;3.92;;
71572;SDS011;59408;51.032;9.410;2023-11-21T00:02:48;8.88;;;3.90;;
71572;SDS011;59408;51.032;9.410;2023-11-21T00:05:16;12.13;;;4.30;;
71572;SDS011;59408;51.032;9.410;2023-11-21T00:07:43;8.37;;;4.00;;
71572;SDS011;59408;51.032;9.410;2023-11-21T00:10:11;12.32;;;4.68;;
71572;SDS011;59408;51.032;9.410;2023-11-21T00:12:38;10.02;;;4.30;;
71572;SDS011;59408;51.032;9.410;2023-11-21T00:15:05;10.45;;;4.55;;
71572;SDS011;59408;51.032;9.410;2023-11-21T00:17:32;11.43;;;4.25;;
71572;SDS011;59408;51.032;9.410;2023-11-21T00:19:59;12.30;;;4.47;;
71572;SDS011;59408;51.032;9.410;2023-11-21T00:22:27;10.30;;;4.00;;
71572;SDS011;59408;51.032;9.410;2023-11-21T00:24:54;12.18;;;4.25;;
71572;SDS011;59408;51.032;9.410;2023-11-21T00:27:20;9.52;;;3.97;;
71572;SDS011;59408;51.032;9.410;2023-11-21T00:29:47;12.10;;;3.97;;
71572;SDS011;59408;51.032;9.410;2023-11-21T00:32:14;7.70;;;3.60;;
71572;SDS011;59408;51.032;9.410;2023-11-21T00:34:40;8.93;;;3.42;;
71572;SDS011;59408;51.032;9.410;2023-11-21T00:37:07;9.20;;;3.20;;
71572;SDS011;59408;51.032;9.410;2023-11-21T00:39:35;7.95;;;3.00;;
71572;SDS011;59408;51.032;9.410;2023-11-21T00:42:02;9.30;;;3.05;;
71572;SDS011;59408;51.032;9.410;2023-11-21T00:44:28;11.87;;;3.53;;
71572;SDS011;59408;51.032;9.410;2023-11-21T00:46:55;9.23;;;3.67;;
71572;SDS011;59408;51.032;9.410;2023-11-21T00:49:22;8.27;;;3.28;;
71572;SDS011;59408;51.032;9.410;2023-11-21T00:51:49;11.00;;;3.20;;
71572;SDS011;59408;51.032;9.410;2023-11-21T00:54:15;9.75;;;3.22;;
71572;SDS011;59408;51.032;9.410;2023-11-21T00:56:43;8.83;;;3.30;;
71572;SDS011;59408;51.032;9.410;2023-11-21T00:59:10;9.05;;;3.40;;
71572;SDS011;59408;51.032;9.410;2023-11-21T01:01:36;10.85;;;3.22;;
71572;SDS011;59408;51.032;9.410;2023-11-21T01:04:03;8.88;;;3.30;;
71572;SDS011;59408;51.032;9.410;2023-11-21T01:06:30;9.30;;;3.50;;
71572;SDS011;59408;51.032;9.410;2023-11-21T01:08:57;9.10;;;3.50;;
71572;SDS011;59408;51.032;9.410;2023-11-21T01:11:24;9.32;;;3.33;;
71572;SDS011;59408;51.032;9.410;2023-11-21T01:13:52;8.43;;;3.00;;
71572;SDS011;59408;51.032;9.410;2023-11-21T01:16:18;9.38;;;2.90;;
71572;SDS011;59408;51.032;9.410;2023-11-21T01:18:45;8.25;;;3.08;;
71572;SDS011;59408;51.032;9.410;2023-11-21T01:21:12;7.83;;;2.53;;
71572;SDS011;59408;51.032;9.410;2023-11-21T01:23:38;7.57;;;2.40;;
71572;SDS011;59408;51.032;9.410;2023-11-21T01:26:05;6.53;;;2.75;;
71572;SDS011;59408;51.032;9.410;2023-11-21T01:28:31;7.57;;;2.40;;
71572;SDS011;59408;51.032;9.410;2023-11-21T01:30:59;6.55;;;2.50;;
71572;SDS011;59408;51.032;9.410;2023-11-21T01:33:26;6.17;;;2.40;;
71572;SDS011;59408;51.032;9.410;2023-11-21T01:35:53;6.85;;;2.60;;
71572;SDS011;59408;51.032;9.410;2023-11-21T01:38:19;5.95;;;2.00;;
71572;SDS011;59408;51.032;9.410;2023-11-21T01:40:46;7.20;;;2.83;;
71572;SDS011;59408;51.032;9.410;2023-11-21T01:43:13;7.30;;;2.20;;
71572;SDS011;59408;51.032;9.410;2023-11-21T01:45:39;6.93;;;2.40;;
71572;SDS011;59408;51.032;9.410;2023-11-21T01:48:07;5.43;;;2.22;;
71572;SDS011;59408;51.032;9.410;2023-11-21T01:50:35;8.05;;;2.55;;
71572;SDS011;59408;51.032;9.410;2023-11-21T01:53:01;6.60;;;2.45;;
71572;SDS011;59408;51.032;9.410;2023-11-21T01:55:28;6.53;;;2.50;;
71572;SDS011;59408;51.032;9.410;2023-11-21T01:57:55;9.27;;;2.83;;
71572;SDS011;59408;51.032;9.410;2023-11-21T02:00:22;7.78;;;2.55;;
71572;SDS011;59408;51.032;9.410;2023-11-21T02:02:49;7.22;;;2.25;;
71572;SDS011;59408;51.032;9.410;2023-11-21T02:05:18;6.93;;;2.53;;
71572;SDS011;59408;51.032;9.410;2023-11-21T02:07:45;6.45;;;2.42;;
71572;SDS011;59408;51.032;9.410;2023-11-21T02:10:12;7.07;;;2.57;;
71572;SDS011;59408;51.032;9.410;2023-11-21T02:12:39;6.35;;;2.13;;
71572;SDS011;59408;51.032;9.410;2023-11-21T02:15:06;8.65;;;2.53;;
71572;SDS011;59408;51.032;9.410;2023-11-21T02:17:33;5.72;;;1.90;;
71572;SDS011;59408;51.032;9.410;2023-11-21T02:20:00;7.93;;;2.35;;
71572;SDS011;59408;51.032;9.410;2023-11-21T02:22:28;7.30;;;2.07;;
71572;SDS011;59408;51.032;9.410;2023-11-21T02:24:59;6.57;;;2.20;;
71572;SDS011;59408;51.032;9.410;2023-11-21T02:27:26;5.57;;;1.90;;
71572;SDS011;59408;51.032;9.410;2023-11-21T02:29:52;7.82;;;2.20;;
71572;SDS011;59408;51.032;9.410;2023-11-21T02:32:19;7.20;;;2.20;;
71572;SDS011;59408;51.032;9.410;2023-11-21T02:34:46;9.80;;;2.10;;
71572;SDS011;59408;51.032;9.410;2023-11-21T02:37:12;7.18;;;2.30;;
71572;SDS011;59408;51.032;9.410;2023-11-21T02:39:39;6.45;;;2.30;;
71572;SDS011;59408;51.032;9.410;2023-11-21T02:42:07;6.57;;;2.10;;
71572;SDS011;59408;51.032;9.410;2023-11-21T02:44:34;5.55;;;2.13;;
71572;SDS011;59408;51.032;9.410;2023-11-21T02:47:00;6.73;;;1.90;;
71572;SDS011;59408;51.032;9.410;2023-11-21T02:49:27;6.68;;;2.00;;
71572;SDS011;59408;51.032;9.410;2023-11-21T02:51:53;5.82;;;2.05;;
71572;SDS011;59408;51.032;9.410;2023-11-21T02:54:20;7.40;;;2.20;;
71572;SDS011;59408;51.032;9.410;2023-11-21T02:56:46;6.70;;;2.20;;
71572;SDS011;59408;51.032;9.410;2023-11-21T02:59:14;9.50;;;2.27;;
71572;SDS011;59408;51.032;9.410;2023-11-21T03:01:41;6.30;;;1.80;;
71572;SDS011;59408;51.032;9.410;2023-11-21T03:04:07;9.50;;;2.33;;
71572;SDS011;59408;51.032;9.410;2023-11-21T03:06:34;8.23;;;2.10;;
71572;SDS011;59408;51.032;9.410;2023-11-21T03:09:00;6.50;;;2.30;;
71572;SDS011;59408;51.032;9.410;2023-11-21T03:11:27;5.70;;;2.30;;
71572;SDS011;59408;51.032;9.410;2023-11-21T03:13:54;7.05;;;2.17;;
71572;SDS011;59408;51.032;9.410;2023-11-21T03:16:22;6.05;;;2.05;;
71572;SDS011;59408;51.032;9.410;2023-11-21T03:18:48;6.35;;;2.00;;
71572;SDS011;59408;51.032;9.410;2023-11-21T03:21:15;5.40;;;1.70;;
71572;SDS011;59408;51.032;9.410;2023-11-21T03:23:42;5.77;;;1.87;;
71572;SDS011;59408;51.032;9.410;2023-11-21T03:26:11;6.13;;;1.88;;
71572;SDS011;59408;51.032;9.410;2023-11-21T03:28:38;7.57;;;2.20;;
71572;SDS011;59408;51.032;9.410;2023-11-21T03:31:05;7.28;;;2.17;;
71572;SDS011;59408;51.032;9.410;2023-11-21T03:33:33;5.55;;;1.80;;
71572;SDS011;59408;51.032;9.410;2023-11-21T03:36:00;5.03;;;1.70;;
71572;SDS011;59408;51.032;9.410;2023-11-21T03:38:27;7.00;;;2.10;;
71572;SDS011;59408;51.032;9.410;2023-11-21T03:40:53;6.45;;;1.77;;
71572;SDS011;59408;51.032;9.410;2023-11-21T03:43:20;6.18;;;2.00;;
71572;SDS011;59408;51.032;9.410;2023-11-21T03:45:46;6.97;;;2.17;;
71572;SDS011;59408;51.032;9.410;2023-11-21T03:48:13;5.50;;;1.80;;
71572;SDS011;59408;51.032;9.410;2023-11-21T03:50:41;6.68;;;1.98;;
71572;SDS011;59408;51.032;9.410;2023-11-21T03:53:08;8.05;;;1.95;;
71572;SDS011;59408;51.032;9.410;2023-11-21T03:55:34;5.35;;;1.75;;
71572;SDS011;59408;51.032;9.410;2023-11-21T03:58:01;6.70;;;1.85;;
71572;SDS011;59408;51.032;9.410;2023-11-21T04:00:28;5.53;;;1.50;;
71572;SDS011;59408;51.032;9.410;2023-11-21T04:02:54;6.07;;;1.90;;
71572;SDS011;59408;51.032;9.410;2023-11-21T04:05:21;5.78;;;1.80;;
71572;SDS011;59408;51.032;9.410;2023-11-21T04:07:51;5.32;;;1.80;;
71572;SDS011;59408;51.032;9.410;2023-11-21T04:10:18;5.47;;;2.10;;
71572;SDS011;59408;51.032;9.410;2023-11-21T04:12:44;9.27;;;1.80;;
71572;SDS011;59408;51.032;9.410;2023-11-21T04:15:12;5.97;;;1.60;;
71572;SDS011;59408;51.032;9.410;2023-11-21T04:17:38;5.65;;;2.00;;
71572;SDS011;59408;51.032;9.410;2023-11-21T04:20:06;6.72;;;1.70;;
71572;SDS011;59408;51.032;9.410;2023-11-21T04:22:34;5.75;;;1.70;;
71572;SDS011;59408;51.032;9.410;2023-11-21T04:25:02;5.00;;;1.53;;
71572;SDS011;59408;51.032;9.410;2023-11-21T04:27:29;6.22;;;1.83;;
71572;SDS011;59408;51.032;9.410;2023-11-21T04:29:55;5.57;;;2.05;;
71572;SDS011;59408;51.032;9.410;2023-11-21T04:32:22;7.35;;;2.10;;
71572;SDS011;59408;51.032;9.410;2023-11-21T04:34:48;4.93;;;1.65;;
71572;SDS011;59408;51.032;9.410;2023-11-21T04:37:15;5.50;;;1.73;;
71572;SDS011;59408;51.032;9.410;2023-11-21T04:39:41;5.05;;;1.70;;
71572;SDS011;59408;51.032;9.410;2023-11-21T04:42:10;8.63;;;2.03;;
71572;SDS011;59408;51.032;9.410;2023-11-21T04:44:36;6.07;;;2.25;;
71572;SDS011;59408;51.032;9.410;2023-11-21T04:47:03;7.32;;;2.25;;
71572;SDS011;59408;51.032;9.410;2023-11-21T04:49:30;6.97;;;2.30;;
71572;SDS011;59408;51.032;9.410;2023-11-21T04:51:57;6.93;;;2.25;;
71572;SDS011;59408;51.032;9.410;2023-11-21T04:54:23;9.13;;;3.30;;
71572;SDS011;59408;51.032;9.410;2023-11-21T04:56:54;9.48;;;3.15;;
71572;SDS011;59408;51.032;9.410;2023-11-21T04:59:22;8.65;;;3.28;;
71572;SDS011;59408;51.032;9.410;2023-11-21T05:01:48;10.73;;;3.20;;
71572;SDS011;59408;51.032;9.410;2023-11-21T05:04:15;9.52;;;3.38;;
71572;SDS011;59408;51.032;9.410;2023-11-21T05:06:42;9.30;;;3.67;;
71572;SDS011;59408;51.032;9.410;2023-11-21T05:09:08;9.38;;;3.45;;
71572;SDS011;59408;51.032;9.410;2023-11-21T05:11:35;7.63;;;2.95;;
71572;SDS011;59408;51.032;9.410;2023-11-21T05:14:01;8.27;;;3.13;;
71572;SDS011;59408;51.032;9.410;2023-11-21T05:16:29;6.85;;;2.75;;
71572;SDS011;59408;51.032;9.410;2023-11-21T05:18:56;9.10;;;3.08;;
71572;SDS011;59408;51.032;9.410;2023-11-21T05:21:23;7.63;;;2.88;;
71572;SDS011;59408;51.032;9.410;2023-11-21T05:23:49;8.15;;;3.33;;
71572;SDS011;59408;51.032;9.410;2023-11-21T05:26:16;14.47;;;3.43;;
71572;SDS011;59408;51.032;9.410;2023-11-21T05:28:42;8.55;;;3.40;;
71572;SDS011;59408;51.032;9.410;2023-11-21T05:31:09;8.35;;;3.42;;
71572;SDS011;59408;51.032;9.410;2023-11-21T05:33:44;10.15;;;4.03;;
71572;SDS011;59408;51.032;9.410;2023-11-21T05:36:11;10.68;;;4.30;;
71572;SDS011;59408;51.032;9.410;2023-11-21T05:38:37;13.43;;;4.13;;
71572;SDS011;59408;51.032;9.410;2023-11-21T05:41:04;11.38;;;4.60;;
71572;SDS011;59408;51.032;9.410;2023-11-21T05:43:31;13.63;;;4.47;;
71572;SDS011;59408;51.032;9.410;2023-11-21T05:45:57;16.35;;;4.95;;
71572;SDS011;59408;51.032;9.410;2023-11-21T05:48:24;17.25;;;4.93;;
71572;SDS011;59408;51.032;9.410;2023-11-21T05:50:52;15.50;;;4.80;;
71572;SDS011;59408;51.032;9.410;2023-11-21T05:53:18;18.27;;;5.05;;
71572;SDS011;59408;51.032;9.410;2023-11-21T05:55:45;13.70;;;4.55;;
71572;SDS011;59408;51.032;9.410;2023-11-21T05:58:11;15.73;;;5.75;;
71572;SDS011;59408;51.032;9.410;2023-11-21T06:00:38;18.52;;;5.90;;
71572;SDS011;59408;51.032;9.410;2023-11-21T06:03:05;14.87;;;6.23;;
71572;SDS011;59408;51.032;9.410;2023-11-21T06:05:32;18.70;;;6.28;;
71572;SDS011;59408;51.032;9.410;2023-11-21T06:08:00;17.05;;;6.15;;
71572;SDS011;59408;51.032;9.410;2023-11-21T06:10:27;38.53;;;6.90;;
71572;SDS011;59408;51.032;9.410;2023-11-21T06:12:54;37.95;;;6.57;;
71572;SDS011;59408;51.032;9.410;2023-11-21T06:15:21;14.13;;;5.73;;
71572;SDS011;59408;51.032;9.410;2023-11-21T06:17:48;21.38;;;6.97;;
71572;SDS011;59408;51.032;9.410;2023-11-21T06:20:15;19.75;;;7.80;;
71572;SDS011;59408;51.032;9.410;2023-11-21T06:22:42;15.25;;;6.50;;
71572;SDS011;59408;51.032;9.410;2023-11-21T06:25:11;17.17;;;6.07;;
71572;SDS011;59408;51.032;9.410;2023-11-21T06:27:39;14.97;;;6.27;;
71572;SDS011;59408;51.032;9.410;2023-11-21T06:30:07;16.95;;;5.80;;
71572;SDS011;59408;51.032;9.410;2023-11-21T06:32:34;14.25;;;5.68;;
71572;SDS011;59408;51.032;9.410;2023-11-21T06:35:01;15.77;;;5.45;;
71572;SDS011;59408;51.032;9.410;2023-11-21T06:37:28;20.58;;;6.05;;
71572;SDS011;59408;51.032;9.410;2023-11-21T06:39:55;13.23;;;5.50;;
71572;SDS011;59408;51.032;9.410;2023-11-21T06:42:24;20.95;;;5.63;;
71572;SDS011;59408;51.032;9.410;2023-11-21T06:44:51;17.52;;;5.70;;
71572;SDS011;59408;51.032;9.410;2023-11-21T06:47:18;15.68;;;5.85;;
71572;SDS011;59408;51.032;9.410;2023-11-21T06:49:45;17.38;;;6.50;;
71572;SDS011;59408;51.032;9.410;2023-11-21T06:52:12;17.33;;;6.10;;
71572;SDS011;59408;51.032;9.410;2023-11-21T06:54:38;21.73;;;6.70;;
71572;SDS011;59408;51.032;9.410;2023-11-21T06:57:05;19.33;;;6.95;;
71572;SDS011;59408;51.032;9.410;2023-11-21T06:59:33;17.00;;;6.25;;
71572;SDS011;59408;51.032;9.410;2023-11-21T07:01:59;20.55;;;6.18;;
71572;SDS011;59408;51.032;9.410;2023-11-21T07:04:26;22.20;;;6.33;;
71572;SDS011;59408;51.032;9.410;2023-11-21T07:06:53;42.25;;;7.03;;
71572;SDS011;59408;51.032;9.410;2023-11-21T07:09:19;23.55;;;5.80;;
71572;SDS011;59408;51.032;9.410;2023-11-21T07:11:46;34.25;;;6.80;;
71572;SDS011;59408;51.032;9.410;2023-11-21T07:14:12;35.63;;;6.10;;
71572;SDS011;59408;51.032;9.410;2023-11-21T07:16:41;27.50;;;5.90;;
71572;SDS011;59408;51.032;9.410;2023-11-21T07:19:07;18.35;;;6.32;;
71572;SDS011;59408;51.032;9.410;2023-11-21T07:21:34;18.38;;;5.55;;
71572;SDS011;59408;51.032;9.410;2023-11-21T07:24:02;24.05;;;6.93;;
71572;SDS011;59408;51.032;9.410;2023-11-21T07:26:29;26.08;;;5.93;;
71572;SDS011;59408;51.032;9.410;2023-11-21T07:28:56;42.97;;;6.47;;
71572;SDS011;59408;51.032;9.410;2023-11-21T07:31:23;24.85;;;5.90;;
71572;SDS011;59408;51.032;9.410;2023-11-21T07:33:51;23.33;;;6.07;;
71572;SDS011;59408;51.032;9.410;2023-11-21T07:36:17;18.45;;;6.03;;
71572;SDS011;59408;51.032;9.410;2023-11-21T07:38:45;34.92;;;7.03;;
71572;SDS011;59408;51.032;9.410;2023-11-21T07:41:12;25.80;;;6.33;;
71572;SDS011;59408;51.032;9.410;2023-11-21T07:43:53;56.72;;;6.88;;
71572;SDS011;59408;51.032;9.410;2023-11-21T07:46:20;30.40;;;7.32;;
71572;SDS011;59408;51.032;9.410;2023-11-21T07:48:47;55.45;;;7.40;;
71572;SDS011;59408;51.032;9.410;2023-11-21T07:51:15;28.67;;;7.07;;
71572;SDS011;59408;51.032;9.410;2023-11-21T07:53:42;20.10;;;6.20;;
71572;SDS011;59408;51.032;9.410;2023-11-21T07:56:09;34.25;;;9.63;;
71572;SDS011;59408;51.032;9.410;2023-11-21T07:58:36;35.17;;;10.30;;
71572;SDS011;59408;51.032;9.410;2023-11-21T08:01:05;26.40;;;7.57;;
71572;SDS011;59408;51.032;9.410;2023-11-21T08:03:32;22.10;;;8.00;;
71572;SDS011;59408;51.032;9.410;2023-11-21T08:05:59;21.60;;;7.90;;
71572;SDS011;59408;51.032;9.410;2023-11-21T08:08:27;23.23;;;8.18;;
71572;SDS011;59408;51.032;9.410;2023-11-21T08:10:54;21.88;;;7.97;;
71572;SDS011;59408;51.032;9.410;2023-11-21T08:13:20;22.88;;;8.98;;
71572;SDS011;59408;51.032;9.410;2023-11-21T08:15:47;25.05;;;10.60;;
71572;SDS011;59408;51.032;9.410;2023-11-21T08:18:14;30.87;;;10.43;;
71572;SDS011;59408;51.032;9.410;2023-11-21T08:20:41;24.40;;;10.15;;
71572;SDS011;59408;51.032;9.410;2023-11-21T08:23:08;24.20;;;9.30;;
71572;SDS011;59408;51.032;9.410;2023-11-21T08:25:36;24.50;;;9.35;;
71572;SDS011;59408;51.032;9.410;2023-11-21T08:28:03;25.95;;;9.43;;
71572;SDS011;59408;51.032;9.410;2023-11-21T08:30:30;24.10;;;10.03;;
71572;SDS011;59408;51.032;9.410;2023-11-21T08:32:56;23.85;;;9.05;;
71572;SDS011;59408;51.032;9.410;2023-11-21T08:35:23;23.65;;;10.00;;
71572;SDS011;59408;51.032;9.410;2023-11-21T08:37:50;26.27;;;11.75;;
71572;SDS011;59408;51.032;9.410;2023-11-21T08:40:17;27.63;;;11.30;;
71572;SDS011;59408;51.032;9.410;2023-11-21T08:42:45;24.87;;;9.43;;
71572;SDS011;59408;51.032;9.410;2023-11-21T08:45:12;22.55;;;9.75;;
71572;SDS011;59408;51.032;9.410;2023-11-21T08:47:38;25.85;;;11.77;;
71572;SDS011;59408;51.032;9.410;2023-11-21T08:50:06;22.20;;;9.35;;
71572;SDS011;59408;51.032;9.410;2023-11-21T08:52:33;23.77;;;9.63;;
71572;SDS011;59408;51.032;9.410;2023-11-21T08:55:00;23.90;;;9.27;;
71572;SDS011;59408;51.032;9.410;2023-11-21T08:57:27;24.02;;;9.25;;
71572;SDS011;59408;51.032;9.410;2023-11-21T08:59:54;22.88;;;8.75;;
71572;SDS011;59408;51.032;9.410;2023-11-21T09:02:21;20.00;;;7.80;;
71572;SDS011;59408;51.032;9.410;2023-11-21T09:04:48;20.92;;;8.63;;
71572;SDS011;59408;51.032;9.410;2023-11-21T09:07:14;21.20;;;8.67;;
71572;SDS011;59408;51.032;9.410;2023-11-21T09:09:41;24.10;;;9.30;;
71572;SDS011;59408;51.032;9.410;2023-11-21T09:12:08;21.13;;;8.82;;
71572;SDS011;59408;51.032;9.410;2023-11-21T09:14:34;26.23;;;11.88;;
71572;SDS011;59408;51.032;9.410;2023-11-21T09:17:02;20.90;;;9.23;;
71572;SDS011;59408;51.032;9.410;2023-11-21T09:19:29;22.37;;;8.60;;
71572;SDS011;59408;51.032;9.410;2023-11-21T09:21:56;22.35;;;8.80;;
71572;SDS011;59408;51.032;9.410;2023-11-21T09:24:22;24.77;;;9.07;;
71572;SDS011;59408;51.032;9.410;2023-11-21T09:26:49;21.02;;;8.40;;
71572;SDS011;59408;51.032;9.410;2023-11-21T09:29:16;19.95;;;9.60;;
71572;SDS011;59408;51.032;9.410;2023-11-21T09:31:42;21.10;;;8.90;;
71572;SDS011;59408;51.032;9.410;2023-11-21T09:34:10;22.83;;;8.90;;
71572;SDS011;59408;51.032;9.410;2023-11-21T09:36:37;20.17;;;8.77;;
71572;SDS011;59408;51.032;9.410;2023-11-21T09:39:04;28.80;;;12.77;;
71572;SDS011;59408;51.032;9.410;2023-11-21T09:41:34;22.25;;;9.23;;
71572;SDS011;59408;51.032;9.410;2023-11-21T09:44:08;17.20;;;7.67;;
71572;SDS011;59408;51.032;9.410;2023-11-21T09:46:39;19.10;;;8.32;;
71572;SDS011;59408;51.032;9.410;2023-11-21T09:49:08;24.15;;;9.10;;
71572;SDS011;59408;51.032;9.410;2023-11-21T09:51:39;22.58;;;8.77;;
71572;SDS011;59408;51.032;9.410;2023-11-21T09:54:09;19.95;;;8.57;;
71572;SDS011;59408;51.032;9.410;2023-11-21T09:56:37;21.10;;;9.43;;
71572;SDS011;59408;51.032;9.410;2023-11-21T09:59:04;19.45;;;8.13;;
71572;SDS011;59408;51.032;9.410;2023-11-21T10:01:32;21.52;;;8.82;;
71572;SDS011;59408;51.032;9.410;2023-11-21T10:03:59;18.75;;;8.00;;
71572;SDS011;59408;51.032;9.410;2023-11-21T10:06:28;19.08;;;7.32;;
71572;SDS011;59408;51.032;9.410;2023-11-21T10:08:56;21.60;;;7.77;;
71572;SDS011;59408;51.032;9.410;2023-11-21T10:11:25;22.10;;;8.77;;
71572;SDS011;59408;51.032;9.410;2023-11-21T10:13:54;17.42;;;7.63;;
71572;SDS011;59408;51.032;9.410;2023-11-21T10:16:21;19.35;;;7.65;;
71572;SDS011;59408;51.032;9.410;2023-11-21T10:18:52;21.50;;;8.52;;
71572;SDS011;59408;51.032;9.410;2023-11-21T10:21:24;19.13;;;7.90;;
71572;SDS011;59408;51.032;9.410;2023-11-21T10:23:52;19.23;;;7.78;;
71572;SDS011;59408;51.032;9.410;2023-11-21T10:26:20;19.83;;;7.78;;
71572;SDS011;59408;51.032;9.410;2023-11-21T10:28:57;19.58;;;7.22;;
71572;SDS011;59408;51.032;9.410;2023-11-21T10:31:24;22.52;;;8.55;;
71572;SDS011;59408;51.032;9.410;2023-11-21T10:33:53;21.47;;;7.57;;
71572;SDS011;59408;51.032;9.410;2023-11-21T10:36:24;21.38;;;7.95;;
71572;SDS011;59408;51.032;9.410;2023-11-21T10:38:53;18.05;;;6.95;;
71572;SDS011;59408;51.032;9.410;2023-11-21T10:41:20;18.98;;;7.43;;
71572;SDS011;59408;51.032;9.410;2023-11-21T10:43:47;18.20;;;6.75;;
71572;SDS011;59408;51.032;9.410;2023-11-21T10:46:14;18.33;;;6.60;;
71572;SDS011;59408;51.032;9.410;2023-11-21T10:48:41;18.27;;;6.97;;
71572;SDS011;59408;51.032;9.410;2023-11-21T10:51:08;20.60;;;8.98;;
71572;SDS011;59408;51.032;9.410;2023-11-21T10:53:38;26.77;;;10.85;;
71572;SDS011;59408;51.032;9.410;2023-11-21T10:56:08;18.75;;;8.50;;
71572;SDS011;59408;51.032;9.410;2023-11-21T10:58:35;21.77;;;9.13;;
71572;SDS011;59408;51.032;9.410;2023-11-21T11:01:03;24.33;;;9.10;;
71572;SDS011;59408;51.032;9.410;2023-11-21T11:03:32;23.58;;;9.80;;
71572;SDS011;59408;51.032;9.410;2023-11-21T11:06:01;18.90;;;8.35;;
71572;SDS011;59408;51.032;9.410;2023-11-21T11:08:28;24.05;;;9.95;;
71572;SDS011;59408;51.032;9.410;2023-11-21T11:10:55;21.90;;;8.03;;
71572;SDS011;59408;51.032;9.410;2023-11-21T11:13:24;21.08;;;7.63;;
71572;SDS011;59408;51.032;9.410;2023-11-21T11:15:51;21.27;;;7.18;;
71572;SDS011;59408;51.032;9.410;2023-11-21T11:18:24;19.92;;;7.55;;
71572;SDS011;59408;51.032;9.410;2023-11-21T11:20:50;19.20;;;7.65;;
71572;SDS011;59408;51.032;9.410;2023-11-21T11:23:27;17.30;;;6.47;;
71572;SDS011;59408;51.032;9.410;2023-11-21T11:26:07;19.10;;;6.70;;
71572;SDS011;59408;51.032;9.410;2023-11-21T11:28:44;18.40;;;7.18;;
71572;SDS011;59408;51.032;9.410;2023-11-21T11:31:23;18.52;;;7.03;;
71572;SDS011;59408;51.032;9.410;2023-11-21T11:33:56;21.52;;;9.73;;
71572;SDS011;59408;51.032;9.410;2023-11-21T11:36:29;20.47;;;8.10;;
71572;SDS011;59408;51.032;9.410;2023-11-21T11:39:02;20.30;;;7.65;;
71572;SDS011;59408;51.032;9.410;2023-11-21T11:41:30;20.20;;;7.18;;
71572;SDS011;59408;51.032;9.410;2023-11-21T11:43:59;21.67;;;7.63;;
71572;SDS011;59408;51.032;9.410;2023-11-21T11:46:39;18.55;;;8.50;;
71572;SDS011;59408;51.032;9.410;2023-11-21T11:49:07;19.17;;;7.20;;
71572;SDS011;59408;51.032;9.410;2023-11-21T11:51:34;19.00;;;6.85;;
71572;SDS011;59408;51.032;9.410;2023-11-21T11:54:00;18.92;;;7.32;;
71572;SDS011;59408;51.032;9.410;2023-11-21T11:56:28;19.17;;;7.22;;
71572;SDS011;59408;51.032;9.410;2023-11-21T11:58:55;18.63;;;7.15;;
71572;SDS011;59408;51.032;9.410;2023-11-21T12:01:26;19.67;;;7.60;;
71572;SDS011;59408;51.032;9.410;2023-11-21T12:06:51;22.75;;;8.48;;
71572;SDS011;59408;51.032;9.410;2023-11-21T12:09:19;20.85;;;7.70;;
71572;SDS011;59408;51.032;9.410;2023-11-21T12:11:45;19.30;;;7.30;;
71572;SDS011;59408;51.032;9.410;2023-11-21T12:14:13;18.97;;;7.33;;
71572;SDS011;59408;51.032;9.410;2023-11-21T12:16:42;21.75;;;8.23;;
71572;SDS011;59408;51.032;9.410;2023-11-21T12:19:09;19.23;;;7.32;;
71572;SDS011;59408;51.032;9.410;2023-11-21T12:21:36;20.00;;;8.13;;
71572;SDS011;59408;51.032;9.410;2023-11-21T12:24:03;19.33;;;7.15;;
71572;SDS011;59408;51.032;9.410;2023-11-21T12:26:31;20.63;;;7.40;;
71572;SDS011;59408;51.032;9.410;2023-11-21T12:28:59;21.80;;;7.60;;
71572;SDS011;59408;51.032;9.410;2023-11-21T12:31:25;19.10;;;6.78;;
71572;SDS011;59408;51.032;9.410;2023-11-21T12:33:55;22.58;;;7.97;;
71572;SDS011;59408;51.032;9.410;2023-11-21T12:36:22;22.25;;;7.90;;
71572;SDS011;59408;51.032;9.410;2023-11-21T12:38:48;20.37;;;8.63;;
71572;SDS011;59408;51.032;9.410;2023-11-21T12:41:15;20.10;;;8.23;;
71572;SDS011;59408;51.032;9.410;2023-11-21T12:43:42;20.90;;;8.80;;
71572;SDS011;59408;51.032;9.410;2023-11-21T12:46:09;22.00;;;8.02;;
71572;SDS011;59408;51.032;9.410;2023-11-21T12:48:37;20.65;;;8.50;;
71572;SDS011;59408;51.032;9.410;2023-11-21T12:51:08;22.53;;;8.40;;
71572;SDS011;59408;51.032;9.410;2023-11-21T12:53:35;20.67;;;8.52;;
71572;SDS011;59408;51.032;9.410;2023-11-21T12:56:02;20.48;;;8.02;;
71572;SDS011;59408;51.032;9.410;2023-11-21T12:58:32;20.45;;;8.15;;
71572;SDS011;59408;51.032;9.410;2023-11-21T13:00:59;22.25;;;7.97;;
71572;SDS011;59408;51.032;9.410;2023-11-21T13:03:25;23.20;;;8.43;;
71572;SDS011;59408;51.032;9.410;2023-11-21T13:05:52;20.95;;;8.07;;
71572;SDS011;59408;51.032;9.410;2023-11-21T13:08:21;20.02;;;8.55;;
71572;SDS011;59408;51.032;9.410;2023-11-21T13:10:51;22.08;;;8.05;;
71572;SDS011;59408;51.032;9.410;2023-11-21T13:13:19;25.55;;;8.98;;
71572;SDS011;59408;51.032;9.410;2023-11-21T13:15:50;23.93;;;8.40;;
71572;SDS011;59408;51.032;9.410;2023-11-21T13:18:18;20.92;;;8.20;;
71572;SDS011;59408;51.032;9.410;2023-11-21T13:20:45;21.38;;;8.48;;
71572;SDS011;59408;51.032;9.410;2023-11-21T13:23:12;21.30;;;7.80;;
71572;SDS011;59408;51.032;9.410;2023-11-21T13:25:40;19.10;;;7.82;;
71572;SDS011;59408;51.032;9.410;2023-11-21T13:28:08;20.53;;;7.40;;
71572;SDS011;59408;51.032;9.410;2023-11-21T13:30:35;17.63;;;6.90;;
71572;SDS011;59408;51.032;9.410;2023-11-21T13:33:02;20.95;;;7.63;;
71572;SDS011;59408;51.032;9.410;2023-11-21T13:35:29;22.80;;;8.75;;
71572;SDS011;59408;51.032;9.410;2023-11-21T13:37:57;30.42;;;12.43;;
71572;SDS011;59408;51.032;9.410;2023-11-21T13:40:24;28.37;;;10.80;;
71572;SDS011;59408;51.032;9.410;2023-11-21T13:42:52;19.73;;;8.05;;
71572;SDS011;59408;51.032;9.410;2023-11-21T13:45:19;18.67;;;7.75;;
71572;SDS011;59408;51.032;9.410;2023-11-21T13:47:46;15.82;;;6.10;;
71572;SDS011;59408;51.032;9.410;2023-11-21T13:50:13;15.35;;;6.50;;
71572;SDS011;59408;51.032;9.410;2023-11-21T13:52:40;16.97;;;6.43;;
71572;SDS011;59408;51.032;9.410;2023-11-21T13:55:07;15.90;;;6.10;;
71572;SDS011;59408;51.032;9.410;2023-11-21T13:57:33;16.42;;;6.18;;
71572;SDS011;59408;51.032;9.410;2023-11-21T14:00:01;14.45;;;5.10;;
71572;SDS011;59408;51.032;9.410;2023-11-21T14:02:28;12.93;;;5.13;;
71572;SDS011;59408;51.032;9.410;2023-11-21T14:04:55;12.77;;;4.87;;
71572;SDS011;59408;51.032;9.410;2023-11-21T14:07:23;11.07;;;4.65;;
71572;SDS011;59408;51.032;9.410;2023-11-21T14:09:49;11.07;;;4.63;;
71572;SDS011;59408;51.032;9.410;2023-11-21T14:12:16;9.98;;;4.25;;
71572;SDS011;59408;51.032;9.410;2023-11-21T14:14:43;11.25;;;4.70;;
71572;SDS011;59408;51.032;9.410;2023-11-21T14:17:11;11.50;;;4.80;;
71572;SDS011;59408;51.032;9.410;2023-11-21T14:19:38;10.55;;;4.35;;
71572;SDS011;59408;51.032;9.410;2023-11-21T14:22:04;11.75;;;5.03;;
71572;SDS011;59408;51.032;9.410;2023-11-21T14:24:32;12.50;;;5.72;;
71572;SDS011;59408;51.032;9.410;2023-11-21T14:26:58;11.88;;;5.30;;
71572;SDS011;59408;51.032;9.410;2023-11-21T14:29:25;14.13;;;5.70;;
71572;SDS011;59408;51.032;9.410;2023-11-21T14:31:52;13.85;;;5.60;;
71572;SDS011;59408;51.032;9.410;2023-11-21T14:34:20;12.73;;;5.88;;
71572;SDS011;59408;51.032;9.410;2023-11-21T14:36:48;13.30;;;5.93;;
71572;SDS011;59408;51.032;9.410;2023-11-21T14:39:15;12.52;;;5.88;;
71572;SDS011;59408;51.032;9.410;2023-11-21T14:41:42;9.43;;;3.97;;